| time (UTC) | temp C | wind direction | speed KPH | gust KPH | rain 1hr cm | rain 24hr cm | rain mn cm | humidity % | barometer mb |
| 20260831141504 | 19 | 219 | 4.8 | 12.9 | 0.00 | 0.18 | 0.00 | 81 | 1007.4 |
| 20260831140005 | 19 | 188 | 3.2 | 19.3 | 0.00 | 0.18 | 0.00 | 81 | 1007.6 |
| 20260831134505 | 18 | 181 | 4.8 | 19.3 | 0.00 | 0.18 | 0.00 | 79 | 1007.4 |
| 20260831133005 | 18 | 175 | 3.2 | 14.5 | 0.00 | 0.23 | 0.00 | 79 | 1007.4 |
| 20260831131504 | 18 | 197 | 4.8 | 14.5 | 0.00 | 0.23 | 0.00 | 79 | 1007.6 |
| 20260831121504 | 20 | 207 | 4.8 | 14.5 | 0.00 | 0.23 | 0.00 | 76 | 1007.4 |
| 20260831111504 | 20 | 205 | 3.2 | 12.9 | 0.00 | 0.23 | 0.00 | 77 | 1007.3 |
| 20260831104504 | 20 | 214 | 4.8 | 19.3 | 0.00 | 0.23 | 0.00 | 78 | 1007.6 |
| 20260831103004 | 20 | 213 | 8.0 | 19.3 | 0.00 | 0.23 | 0.00 | 77 | 1008.0 |
| 20260831101505 | 19 | 200 | 4.8 | 16.1 | 0.00 | 0.25 | 0.00 | 80 | 1008.0 |
| 20260831100004 | 19 | 208 | 4.8 | 14.5 | 0.00 | 0.25 | 0.00 | 80 | 1008.0 |
| 20260831091504 | 18 | 204 | 4.8 | 19.3 | 0.00 | 0.25 | 0.00 | 81 | 1007.8 |
| 20260831084504 | 18 | 204 | 4.8 | 11.3 | 0.00 | 0.25 | 0.00 | 83 | 1007.5 |
| 20260831083006 | 18 | 219 | 3.2 | 14.5 | 0.00 | 0.25 | 0.00 | 83 | 1007.5 |
| 20260831080004 | 18 | 203 | 3.2 | 11.3 | 0.00 | 0.25 | 0.00 | 83 | 1007.5 |
| 20260831071505 | 17 | 249 | 3.2 | 8.0 | 0.00 | 0.25 | 0.00 | 86 | 1007.6 |
| 20260831070003 | 17 | 231 | 3.2 | 9.7 | 0.00 | 0.25 | 0.00 | 87 | 1007.6 |
| 20260831063004 | 16 | 255 | 4.8 | 12.9 | 0.00 | 0.25 | 0.00 | 88 | 1007.8 |
| 20260831060005 | 15 | 165 | 6.4 | 14.5 | 0.00 | 0.25 | 0.00 | 90 | 1007.5 |
| 20260831054504 | 15 | 206 | 4.8 | 12.9 | 0.00 | 0.25 | 0.00 | 90 | 1007.4 |
| 20260831053005 | 15 | 207 | 4.8 | 12.9 | 0.00 | 0.25 | 0.00 | 91 | 1007.4 |
| 20260831051505 | 15 | 214 | 4.8 | 14.5 | 0.00 | 0.25 | 0.00 | 91 | 1007.4 |
| 20260831043004 | 15 | 211 | 4.8 | 12.9 | 0.00 | 0.25 | 0.00 | 92 | 1006.8 |
| 20260831024504 | 16 | 221 | 3.2 | 20.9 | 0.00 | 0.25 | 0.00 | 91 | 1006.1 |
| 20260831023005 | 16 | 244 | 8.0 | 16.1 | 0.00 | 0.25 | 0.00 | 91 | 1006.1 |
| 20260831021504 | 16 | 204 | 6.4 | 19.3 | 0.00 | 0.25 | 0.00 | 91 | 1006.1 |
| 20260831020004 | 16 | 211 | 4.8 | 16.1 | 0.00 | 0.25 | 0.00 | 91 | 1006.0 |
| 20260831014504 | 16 | 207 | 4.8 | 16.1 | 0.00 | 0.25 | 0.00 | 90 | 1005.9 |
| 20260831011504 | 16 | 216 | 3.2 | 16.1 | 0.00 | 0.25 | 0.00 | 89 | 1005.7 |
| 20260831010004 | 17 | 218 | 3.2 | 16.1 | 0.00 | 0.25 | 0.00 | 88 | 1005.7 |
| 20260830234504 | 17 | 251 | 3.2 | 19.3 | 0.00 | 0.25 | 0.00 | 88 | 1005.2 |
| 20260830233003 | 17 | 271 | 4.8 | 20.9 | 0.00 | 0.25 | 0.00 | 88 | 1005.5 |
| 20260830231504 | 17 | 242 | 4.8 | 16.1 | 0.00 | 0.25 | 0.00 | 89 | 1005.4 |
| 20260830230004 | 17 | 243 | 3.2 | 9.7 | 0.00 | 0.25 | 0.00 | 89 | 1005.2 |
| 20260830224504 | 18 | 273 | 3.2 | 20.9 | 0.00 | 0.25 | 0.00 | 89 | 1003.9 |
| 20260830220005 | 18 | 211 | 4.8 | 12.9 | 0.00 | 0.25 | 0.00 | 92 | 1003.9 |
| 20260830214504 | 18 | 204 | 4.8 | 16.1 | 0.00 | 0.25 | 0.25 | 92 | 1003.5 |
| 20260830213005 | 18 | 211 | 4.8 | 14.5 | 0.00 | 0.25 | 0.25 | 92 | 1003.5 |
| 20260830211504 | 18 | 203 | 6.4 | 12.9 | 0.00 | 0.25 | 0.25 | 92 | 1003.5 |
| 20260830210004 | 18 | 209 | 6.4 | 14.5 | 0.00 | 0.25 | 0.25 | 92 | 1003.2 |
| 20260830204504 | 18 | 175 | 4.8 | 14.5 | 0.00 | 0.25 | 0.25 | 92 | 1003.1 |
| 20260830201504 | 18 | 213 | 6.4 | 19.3 | 0.00 | 0.25 | 0.25 | 93 | 1002.6 |
| 20260830193005 | 18 | 204 | 8.0 | 19.3 | 0.00 | 0.25 | 0.25 | 92 | 1002.7 |
| 20260830191504 | 18 | 179 | 8.0 | 19.3 | 0.00 | 0.25 | 0.25 | 92 | 1002.8 |
| 20260830183004 | 18 | 197 | 8.0 | 22.5 | 0.00 | 0.25 | 0.25 | 92 | 1003.0 |
| 20260830181504 | 18 | 202 | 6.4 | 22.5 | 0.00 | 0.25 | 0.25 | 92 | 1002.8 |
| 20260830174504 | 18 | 202 | 8.0 | 24.1 | 0.00 | 0.25 | 0.25 | 93 | 1002.9 |
| 20260830173004 | 18 | 188 | 6.4 | 24.1 | 0.00 | 0.25 | 0.25 | 93 | 1002.9 |
| 20260830171504 | 18 | 187 | 9.7 | 24.1 | 0.03 | 0.25 | 0.25 | 93 | 1002.8 |
| 20260830164504 | 18 | 198 | 9.7 | 22.5 | 0.03 | 0.25 | 0.25 | 92 | 1002.7 |
| 20260830163004 | 18 | 170 | 11.3 | 25.7 | 0.03 | 0.25 | 0.25 | 93 | 1002.8 |
| 20260830161504 | 18 | 176 | 11.3 | 25.7 | 0.05 | 0.23 | 0.23 | 92 | 1003.0 |
| 20260830160004 | 18 | 210 | 9.7 | 32.2 | 0.15 | 0.23 | 0.23 | 93 | 1003.0 |
| 20260830153006 | 18 | 192 | 8.0 | 24.1 | 0.15 | 0.23 | 0.23 | 92 | 1003.2 |
| 20260830151504 | 18 | 180 | 11.3 | 32.2 | 0.13 | 0.20 | 0.20 | 91 | 1003.2 |
| 20260830150005 | 18 | 188 | 11.3 | 32.2 | 0.03 | 0.10 | 0.10 | 90 | 1003.3 |